Time;durP1;ratioP1;P1;durP2;ratioP2;P2;SDS_P1;SDS_P2;PMS_P1;PMS_P2;Temp;Humidity;BMP_temperature;BMP_pressure;BME280_temperature;BME280_humidity;BME280_pressure;Samples;Min_cycle;Max_cycle;Signal;HPM_P1;HPM_P2
2021/01/15 00:00:54;;;;;;;1.48;0.70;;;13.90;67.10;;;;;;5009584;28;20029;-76
2021/01/15 00:03:20;;;;;;;0.77;0.70;;;13.90;67.20;;;;;;5033121;28;20359;-76
2021/01/15 00:05:45;;;;;;;1.42;0.75;;;13.90;67.20;;;;;;5027532;28;20136;-76
2021/01/15 00:08:11;;;;;;;0.95;0.65;;;13.90;67.10;;;;;;5015157;28;20036;-76
2021/01/15 00:10:37;;;;;;;1.00;0.82;;;13.90;67.20;;;;;;5015169;28;20032;-77
2021/01/15 00:13:03;;;;;;;0.82;0.73;;;13.90;67.20;;;;;;5009127;28;20117;-76
2021/01/15 00:15:29;;;;;;;1.10;0.73;;;13.90;67.20;;;;;;5030561;28;20112;-76
2021/01/15 00:17:54;;;;;;;0.93;0.80;;;13.90;67.20;;;;;;5013895;28;20026;-76
2021/01/15 00:20:20;;;;;;;1.15;0.75;;;13.90;67.20;;;;;;5011148;28;20029;-77
2021/01/15 00:22:46;;;;;;;0.73;0.68;;;13.90;67.20;;;;;;5028597;28;20025;-76
2021/01/15 00:25:11;;;;;;;0.77;0.68;;;13.90;67.20;;;;;;5030081;28;20434;-76
2021/01/15 00:27:38;;;;;;;0.98;0.70;;;13.90;67.20;;;;;;5015302;28;20064;-76
2021/01/15 00:30:06;;;;;;;0.60;0.60;;;13.90;67.20;;;;;;5028282;28;20062;-76
2021/01/15 00:32:31;;;;;;;0.95;0.70;;;13.90;67.20;;;;;;5014800;28;20041;-78
2021/01/15 00:34:57;;;;;;;0.55;0.55;;;13.80;67.20;;;;;;5028491;28;20026;-76
2021/01/15 00:37:23;;;;;;;1.42;0.80;;;13.90;67.20;;;;;;5023498;28;20065;-76
2021/01/15 00:39:48;;;;;;;0.93;0.60;;;13.90;67.20;;;;;;5014398;28;20026;-76
2021/01/15 00:42:14;;;;;;;0.60;0.50;;;13.90;67.20;;;;;;5013721;28;20033;-76
2021/01/15 00:44:45;;;;;;;0.57;0.57;;;13.80;67.30;;;;;;5030864;28;20117;-76
2021/01/15 00:47:11;;;;;;;0.85;0.63;;;13.90;67.20;;;;;;5025741;28;20052;-76
2021/01/15 00:49:37;;;;;;;0.55;0.55;;;13.90;67.30;;;;;;5025519;28;20025;-76
2021/01/15 00:52:03;;;;;;;0.68;0.50;;;13.80;67.20;;;;;;5007943;28;20080;-76
2021/01/15 00:54:28;;;;;;;0.75;0.60;;;13.90;67.20;;;;;;5008812;28;20029;-76
2021/01/15 00:57:04;;;;;;;1.17;0.65;;;13.80;67.30;;;;;;5005771;28;20504;-76
2021/01/15 00:59:29;;;;;;;1.15;0.70;;;13.80;67.30;;;;;;5027247;28;20032;-76
2021/01/15 01:01:55;;;;;;;1.15;0.70;;;13.80;67.30;;;;;;5010126;28;20025;-76
2021/01/15 01:04:20;;;;;;;0.90;0.68;;;13.90;67.30;;;;;;5024795;28;20475;-76
2021/01/15 01:06:46;;;;;;;0.88;0.70;;;13.80;67.30;;;;;;5004631;28;20038;-77
2021/01/15 01:09:12;;;;;;;0.60;0.60;;;13.80;67.30;;;;;;5022875;28;20088;-76
2021/01/15 01:11:38;;;;;;;0.68;0.52;;;13.80;67.30;;;;;;5010371;28;20101;-77
2021/01/15 01:14:04;;;;;;;1.42;0.75;;;13.90;67.30;;;;;;5026087;28;20076;-76
2021/01/15 01:16:30;;;;;;;3.65;0.98;;;13.80;67.30;;;;;;5008653;28;20033;-76
2021/01/15 01:18:56;;;;;;;0.50;0.50;;;13.80;67.30;;;;;;5007738;28;20394;-76
2021/01/15 01:21:23;;;;;;;0.57;0.50;;;13.80;67.30;;;;;;5023699;28;20075;-76
2021/01/15 01:23:50;;;;;;;2.13;0.85;;;13.80;67.30;;;;;;5022008;28;20022;-76
2021/01/15 01:26:16;;;;;;;1.33;0.50;;;13.80;67.30;;;;;;5004009;28;20652;-76
2021/01/15 01:28:42;;;;;;;0.88;0.77;;;13.90;67.30;;;;;;5006496;28;20467;-76
2021/01/15 01:31:10;;;;;;;0.55;0.50;;;13.80;67.30;;;;;;5021985;28;20045;-76
2021/01/15 01:33:35;;;;;;;1.03;0.80;;;13.80;67.30;;;;;;5004930;28;20043;-76
2021/01/15 01:36:01;;;;;;;1.02;0.77;;;13.80;67.30;;;;;;5025168;28;20033;-76
2021/01/15 01:38:27;;;;;;;1.10;0.70;;;13.80;67.30;;;;;;5007482;28;20029;-76
2021/01/15 01:40:53;;;;;;;0.73;0.63;;;13.80;67.30;;;;;;5003084;28;20702;-76
2021/01/15 01:43:18;;;;;;;0.60;0.60;;;13.80;67.30;;;;;;5020378;28;20035;-76
2021/01/15 01:45:44;;;;;;;1.02;0.70;;;13.80;67.30;;;;;;5007529;28;20071;-76
2021/01/15 01:48:11;;;;;;;0.75;0.75;;;13.80;67.40;;;;;;4995060;28;20480;-75
2021/01/15 01:50:41;;;;;;;0.98;0.68;;;13.80;67.40;;;;;;4988097;28;20025;-76
2021/01/15 01:53:10;;;;;;;0.55;0.55;;;13.80;67.40;;;;;;4985983;28;20049;-76
2021/01/15 01:55:37;;;;;;;0.90;0.70;;;13.80;67.40;;;;;;5004083;28;20037;-76
2021/01/15 01:58:03;;;;;;;0.63;0.60;;;13.80;67.40;;;;;;5007761;28;20033;-76
2021/01/15 02:00:29;;;;;;;0.93;0.55;;;13.80;67.40;;;;;;5008530;28;20029;-76
2021/01/15 02:02:54;;;;;;;0.40;0.40;;;13.80;67.40;;;;;;5006358;28;20031;-76
2021/01/15 02:05:20;;;;;;;0.93;0.70;;;13.80;67.40;;;;;;5011231;28;20112;-76
2021/01/15 02:07:48;;;;;;;0.68;0.52;;;13.80;67.40;;;;;;5006068;28;20030;-76
2021/01/15 02:10:31;;;;;;;0.43;0.43;;;13.80;67.40;;;;;;4993647;28;20038;-76
2021/01/15 02:12:56;;;;;;;0.90;0.60;;;13.80;67.40;;;;;;5009211;28;20030;-75
2021/01/15 02:15:29;;;;;;;0.43;0.40;;;13.80;67.40;;;;;;5010867;28;20052;-76
2021/01/15 02:18:05;;;;;;;0.55;0.45;;;13.80;67.50;;;;;;4991700;28;20475;-76
2021/01/15 02:20:30;;;;;;;0.70;0.47;;;13.80;67.50;;;;;;5006812;28;20463;-75
2021/01/15 02:23:11;;;;;;;0.50;0.40;;;13.80;67.50;;;;;;5009268;28;20037;-76
2021/01/15 02:25:37;;;;;;;0.98;0.73;;;13.80;67.50;;;;;;5001524;28;20042;-76
2021/01/15 02:28:27;;;;;;;0.73;0.55;;;13.80;67.50;;;;;;5007535;28;20034;-77
2021/01/15 02:31:17;;;;;;;1.23;0.70;;;13.80;67.50;;;;;;5006040;28;20026;-76
2021/01/15 02:34:27;;;;;;;0.82;0.40;;;13.80;67.50;;;;;;5011285;28;20529;-76
2021/01/15 02:37:11;;;;;;;0.60;0.60;;;13.80;67.50;;;;;;5008386;28;20030;-76
2021/01/15 02:39:59;;;;;;;1.05;0.52;;;13.80;67.50;;;;;;5007211;28;20032;-76
2021/01/15 02:42:25;;;;;;;0.75;0.65;;;13.80;67.50;;;;;;5008409;28;20036;-76
2021/01/15 02:44:53;;;;;;;0.60;0.55;;;13.80;67.50;;;;;;5007922;28;20033;-75
2021/01/15 02:47:23;;;;;;;0.50;0.50;;;13.80;67.50;;;;;;5010258;28;20403;-76
2021/01/15 02:49:55;;;;;;;0.32;0.32;;;13.80;67.50;;;;;;5005965;28;21104;-75
2021/01/15 02:52:21;;;;;;;1.02;0.82;;;13.80;67.50;;;;;;5027641;28;20022;-77
2021/01/15 02:54:46;;;;;;;0.65;0.45;;;13.80;67.50;;;;;;5027084;28;20385;-76
2021/01/15 02:57:12;;;;;;;0.90;0.57;;;13.80;67.50;;;;;;5012653;28;20022;-78
2021/01/15 02:59:38;;;;;;;0.77;0.60;;;13.80;67.50;;;;;;5013072;28;20021;-76
2021/01/15 03:02:33;;;;;;;0.55;0.55;;;13.80;67.50;;;;;;5022564;28;20099;-76
2021/01/15 03:05:07;;;;;;;0.95;0.70;;;13.80;67.50;;;;;;5026506;28;20352;-75
2021/01/15 03:07:34;;;;;;;0.45;0.45;;;13.80;67.50;;;;;;5026693;28;20545;-77
2021/01/15 03:10:04;;;;;;;0.50;0.50;;;13.80;67.50;;;;;;5010231;28;20037;-76
2021/01/15 03:12:31;;;;;;;0.80;0.70;;;13.80;67.50;;;;;;5010197;28;20069;-76
2021/01/15 03:14:58;;;;;;;0.95;0.70;;;13.70;67.60;;;;;;5010565;28;20025;-76
2021/01/15 03:17:30;;;;;;;0.40;0.40;;;13.80;67.60;;;;;;4998097;28;20471;-77
2021/01/15 03:19:56;;;;;;;0.50;0.50;;;13.80;67.60;;;;;;5032188;28;20327;-75
2021/01/15 03:22:23;;;;;;;0.43;0.43;;;13.70;67.60;;;;;;5013751;28;20487;-76
2021/01/15 03:24:53;;;;;;;0.60;0.60;;;13.80;67.60;;;;;;5014121;28;20383;-76
2021/01/15 03:27:20;;;;;;;0.73;0.65;;;13.70;67.60;;;;;;5010974;28;20100;-75
2021/01/15 03:29:46;;;;;;;0.68;0.60;;;13.70;67.60;;;;;;5029406;28;20033;-76
2021/01/15 03:32:12;;;;;;;0.85;0.68;;;13.70;67.60;;;;;;5027087;28;20391;-75
2021/01/15 03:34:38;;;;;;;0.95;0.68;;;13.70;67.60;;;;;;5014622;28;20021;-76
2021/01/15 03:37:04;;;;;;;0.45;0.40;;;13.70;67.60;;;;;;5032597;28;20471;-75
2021/01/15 03:39:30;;;;;;;0.40;0.40;;;13.70;67.60;;;;;;5029902;28;20033;-76
2021/01/15 03:41:56;;;;;;;0.50;0.50;;;13.80;67.60;;;;;;5031452;28;20434;-76
2021/01/15 03:44:22;;;;;;;0.43;0.40;;;13.80;67.60;;;;;;5010620;28;20083;-76
2021/01/15 03:46:52;;;;;;;0.52;0.43;;;13.70;67.60;;;;;;5006670;28;20030;-76
2021/01/15 03:49:18;;;;;;;0.60;0.50;;;13.70;67.60;;;;;;5031307;28;20044;-75
2021/01/15 03:51:43;;;;;;;0.57;0.50;;;13.70;67.60;;;;;;5031431;28;20029;-79
2021/01/15 03:54:09;;;;;;;1.40;1.02;;;13.70;67.60;;;;;;5013788;28;20075;-76
2021/01/15 03:56:35;;;;;;;0.52;0.47;;;13.70;67.60;;;;;;5015700;28;20045;-76
2021/01/15 03:59:00;;;;;;;1.23;0.50;;;13.70;67.60;;;;;;5011654;28;20075;-76
2021/01/15 04:01:26;;;;;;;0.40;0.40;;;13.70;67.60;;;;;;5028964;28;20038;-77
2021/01/15 04:03:52;;;;;;;1.70;0.60;;;13.70;67.60;;;;;;5010296;28;20041;-76
2021/01/15 04:06:25;;;;;;;0.52;0.50;;;13.70;67.60;;;;;;5015604;28;20408;-76
2021/01/15 04:08:51;;;;;;;0.50;0.50;;;13.70;67.60;;;;;;5011220;28;20539;-76
2021/01/15 04:11:18;;;;;;;0.50;0.50;;;13.70;67.70;;;;;;5030363;28;20104;-76
2021/01/15 04:13:44;;;;;;;0.40;0.40;;;13.70;67.70;;;;;;5030864;28;20029;-76
2021/01/15 04:16:16;;;;;;;0.80;0.60;;;13.70;67.70;;;;;;5030432;28;20022;-75
2021/01/15 04:18:43;;;;;;;0.65;0.63;;;13.70;67.60;;;;;;5015229;28;20032;-76
2021/01/15 04:21:13;;;;;;;0.43;0.43;;;13.70;67.70;;;;;;5029517;28;20017;-76
2021/01/15 04:23:39;;;;;;;0.77;0.40;;;13.70;67.70;;;;;;5030086;28;20104;-76
2021/01/15 04:26:05;;;;;;;0.80;0.70;;;13.70;67.60;;;;;;5028884;28;20113;-76
2021/01/15 04:28:30;;;;;;;0.95;0.68;;;13.70;67.70;;;;;;5012660;28;20672;-77
2021/01/15 04:30:57;;;;;;;0.52;0.40;;;13.70;67.70;;;;;;5026675;28;20029;-76
2021/01/15 04:33:23;;;;;;;0.52;0.45;;;13.70;67.70;;;;;;5015004;28;20453;-76
2021/01/15 04:35:48;;;;;;;0.82;0.60;;;13.70;67.70;;;;;;5030868;28;20065;-76
2021/01/15 04:38:14;;;;;;;0.57;0.50;;;13.70;67.70;;;;;;5010358;28;20479;-76
2021/01/15 04:40:40;;;;;;;0.63;0.60;;;13.70;67.70;;;;;;5022569;28;20383;-76
2021/01/15 04:43:05;;;;;;;1.35;0.60;;;13.70;67.70;;;;;;5013143;28;20033;-75
2021/01/15 04:45:31;;;;;;;0.80;0.50;;;13.70;67.70;;;;;;5025798;28;20037;-76
2021/01/15 04:47:58;;;;;;;0.88;0.63;;;13.70;67.70;;;;;;5013959;28;20033;-76
2021/01/15 04:50:24;;;;;;;0.68;0.57;;;13.70;67.70;;;;;;5030025;28;20091;-77
2021/01/15 04:52:51;;;;;;;0.60;0.60;;;13.70;67.70;;;;;;5033587;28;20048;-76
2021/01/15 04:55:20;;;;;;;0.60;0.50;;;13.70;67.70;;;;;;5027186;28;20112;-76
2021/01/15 04:57:50;;;;;;;0.30;0.30;;;13.70;67.70;;;;;;5006498;28;20022;-76
2021/01/15 05:00:22;;;;;;;0.47;0.38;;;13.60;67.80;;;;;;5027601;28;20098;-76
2021/01/15 05:02:48;;;;;;;0.50;0.40;;;13.60;67.70;;;;;;5012241;28;20502;-76
2021/01/15 05:05:25;;;;;;;0.63;0.50;;;13.60;67.70;;;;;;5031710;28;20075;-76
2021/01/15 05:08:09;;;;;;;0.82;0.50;;;13.70;67.70;;;;;;5011602;28;20033;-76
2021/01/15 05:10:43;;;;;;;0.45;0.40;;;13.70;67.80;;;;;;5009026;28;22073;-76
2021/01/15 05:13:11;;;;;;;0.40;0.32;;;13.60;67.70;;;;;;5011063;28;20030;-76
2021/01/15 05:15:38;;;;;;;0.50;0.50;;;13.60;67.70;;;;;;5008517;28;20518;-75
2021/01/15 05:18:05;;;;;;;0.50;0.50;;;13.70;67.80;;;;;;5024130;28;20029;-75
2021/01/15 05:20:32;;;;;;;0.77;0.65;;;13.60;67.80;;;;;;5022732;28;20033;-75
2021/01/15 05:23:01;;;;;;;0.95;0.50;;;13.60;67.80;;;;;;5024543;28;20029;-76
2021/01/15 05:25:28;;;;;;;0.75;0.73;;;13.70;67.80;;;;;;5023243;28;20041;-77
2021/01/15 05:27:54;;;;;;;0.50;0.50;;;13.60;67.80;;;;;;5007426;28;20037;-76
2021/01/15 05:30:24;;;;;;;0.40;0.40;;;13.60;67.80;;;;;;5010455;28;20027;-76
2021/01/15 05:32:51;;;;;;;0.60;0.60;;;13.60;67.80;;;;;;5010801;28;20021;-76
2021/01/15 05:35:18;;;;;;;0.65;0.55;;;13.60;67.80;;;;;;5010362;28;20486;-76
2021/01/15 05:37:58;;;;;;;0.50;0.47;;;13.60;67.80;;;;;;5026279;28;20391;-76
2021/01/15 05:40:42;;;;;;;0.32;0.32;;;13.60;67.80;;;;;;5010940;28;20112;-76
2021/01/15 05:43:43;;;;;;;0.45;0.30;;;13.60;67.80;;;;;;5020333;28;20034;-76
2021/01/15 05:46:16;;;;;;;0.50;0.43;;;13.60;67.80;;;;;;5017457;28;20048;-76
2021/01/15 05:48:49;;;;;;;0.85;0.60;;;13.60;67.80;;;;;;5026052;28;20053;-77
2021/01/15 05:51:25;;;;;;;0.73;0.60;;;13.60;67.80;;;;;;5001412;28;20382;-77
2021/01/15 05:53:51;;;;;;;0.50;0.43;;;13.60;67.80;;;;;;5010053;28;20095;-76
2021/01/15 05:56:19;;;;;;;0.98;0.50;;;13.60;67.80;;;;;;5022661;28;20040;-77
2021/01/15 05:59:05;;;;;;;0.47;0.45;;;13.60;67.80;;;;;;5010062;28;20137;-76
2021/01/15 06:01:47;;;;;;;0.65;0.50;;;13.60;67.80;;;;;;5004248;28;20038;-76
2021/01/15 06:04:15;;;;;;;0.60;0.52;;;13.60;67.80;;;;;;5021866;28;20021;-76
2021/01/15 06:06:42;;;;;;;0.52;0.50;;;13.60;67.80;;;;;;5025792;28;20037;-75
2021/01/15 06:09:10;;;;;;;0.98;0.60;;;13.60;67.80;;;;;;5028193;28;20030;-76
2021/01/15 06:11:39;;;;;;;0.50;0.50;;;13.60;67.80;;;;;;5007787;28;20025;-76
2021/01/15 06:14:29;;;;;;;0.50;0.38;;;13.60;67.80;;;;;;5004267;28;20040;-76
2021/01/15 06:17:05;;;;;;;0.50;0.50;;;13.60;67.80;;;;;;5023174;28;20033;-76
2021/01/15 06:19:44;;;;;;;0.75;0.40;;;13.60;67.80;;;;;;5014175;28;20121;-76
2021/01/15 06:22:33;;;;;;;0.40;0.40;;;13.60;67.80;;;;;;5025274;28;20475;-75
2021/01/15 06:25:19;;;;;;;0.50;0.50;;;13.60;67.80;;;;;;5025498;28;20017;-76
2021/01/15 06:27:46;;;;;;;0.30;0.30;;;13.60;67.80;;;;;;5010055;28;20029;-76
2021/01/15 06:30:17;;;;;;;0.73;0.52;;;13.60;67.80;;;;;;5027675;28;20033;-76
2021/01/15 06:32:45;;;;;;;0.85;0.52;;;13.60;67.80;;;;;;5009313;28;20036;-75
2021/01/15 06:35:32;;;;;;;0.70;0.50;;;13.60;67.80;;;;;;5010074;28;20128;-75
2021/01/15 06:38:03;;;;;;;0.40;0.40;;;13.60;67.80;;;;;;5022639;28;20414;-76
2021/01/15 06:40:34;;;;;;;0.40;0.40;;;13.60;67.80;;;;;;5025107;28;20033;-76
2021/01/15 06:43:08;;;;;;;1.02;0.50;;;13.60;67.80;;;;;;5027193;28;20127;-76
2021/01/15 06:45:48;;;;;;;1.30;0.60;;;13.60;67.80;;;;;;5018655;28;20144;-76
2021/01/15 06:48:18;;;;;;;0.60;0.45;;;13.60;67.80;;;;;;5022863;28;20041;-76
2021/01/15 06:50:46;;;;;;;0.68;0.47;;;13.60;67.80;;;;;;5010715;28;20030;-76
2021/01/15 06:53:17;;;;;;;1.02;0.65;;;13.60;67.80;;;;;;5009657;28;20030;-75
2021/01/15 06:55:45;;;;;;;0.55;0.40;;;13.60;67.80;;;;;;5007176;28;20037;-76
2021/01/15 06:58:18;;;;;;;0.52;0.38;;;13.60;67.80;;;;;;5022407;28;20064;-75
2021/01/15 07:00:54;;;;;;;0.32;0.32;;;13.60;67.80;;;;;;5008273;28;20102;-75
2021/01/15 07:03:59;;;;;;;0.43;0.43;;;13.50;67.80;;;;;;5021993;28;20065;-75
2021/01/15 07:06:32;;;;;;;0.63;0.50;;;13.60;67.80;;;;;;4973515;28;20057;-76
2021/01/15 07:09:08;;;;;;;0.43;0.43;;;13.50;67.80;;;;;;5007615;28;20036;-75
2021/01/15 07:11:40;;;;;;;0.60;0.60;;;13.60;67.90;;;;;;5024349;28;20112;-76
2021/01/15 07:14:06;;;;;;;0.98;0.50;;;13.60;67.80;;;;;;5009323;28;20037;-76
2021/01/15 07:16:39;;;;;;;0.52;0.38;;;13.50;67.80;;;;;;5028941;28;20449;-75
2021/01/15 07:19:05;;;;;;;1.77;0.32;;;13.60;67.80;;;;;;5012595;28;20029;-75
2021/01/15 07:21:35;;;;;;;0.50;0.40;;;13.60;67.80;;;;;;5029109;28;20105;-76
2021/01/15 07:24:08;;;;;;;0.32;0.32;;;13.50;67.70;;;;;;5008138;28;20049;-75
2021/01/15 07:26:41;;;;;;;0.40;0.40;;;13.60;67.70;;;;;;5006185;28;20037;-75
2021/01/15 07:29:14;;;;;;;0.30;0.30;;;13.60;67.70;;;;;;5026663;28;20100;-75
2021/01/15 07:31:45;;;;;;;0.50;0.50;;;13.60;67.70;;;;;;5024652;28;20033;-76
2021/01/15 07:34:17;;;;;;;0.52;0.40;;;13.60;67.70;;;;;;5025530;28;20018;-75
2021/01/15 07:36:43;;;;;;;0.55;0.47;;;13.60;67.70;;;;;;5028692;28;20034;-75
2021/01/15 07:39:19;;;;;;;0.68;0.40;;;13.60;67.70;;;;;;5027943;28;20160;-76
2021/01/15 07:41:52;;;;;;;0.82;0.38;;;13.60;67.70;;;;;;5012069;28;20029;-75
2021/01/15 07:44:21;;;;;;;0.50;0.50;;;13.60;67.60;;;;;;5007592;28;20022;-75
2021/01/15 07:46:50;;;;;;;0.47;0.47;;;13.60;67.60;;;;;;5024802;28;20109;-75
2021/01/15 07:49:16;;;;;;;0.50;0.35;;;13.60;67.60;;;;;;5012050;28;20039;-76
2021/01/15 07:51:42;;;;;;;0.70;0.60;;;13.60;67.60;;;;;;5009074;28;20115;-74
2021/01/15 07:54:08;;;;;;;0.77;0.50;;;13.60;67.60;;;;;;5009423;28;20049;-76
2021/01/15 07:56:34;;;;;;;0.40;0.40;;;13.60;67.60;;;;;;5027101;28;20470;-75
2021/01/15 07:58:59;;;;;;;0.57;0.55;;;13.60;67.60;;;;;;5023255;28;20025;-75
2021/01/15 08:01:25;;;;;;;0.65;0.52;;;13.60;67.60;;;;;;5030526;28;20033;-74
2021/01/15 08:03:54;;;;;;;0.65;0.50;;;13.60;67.50;;;;;;5009326;28;20026;-75
2021/01/15 08:06:21;;;;;;;0.68;0.50;;;13.60;67.50;;;;;;5032529;28;20025;-76
2021/01/15 08:08:57;;;;;;;0.77;0.60;;;13.70;67.50;;;;;;5011724;28;20067;-75
2021/01/15 08:11:23;;;;;;;0.70;0.70;;;13.60;67.50;;;;;;5024676;28;20120;-75
2021/01/15 08:13:49;;;;;;;0.40;0.40;;;13.60;67.50;;;;;;5031453;28;20120;-75
2021/01/15 08:16:15;;;;;;;0.45;0.40;;;13.60;67.50;;;;;;5026803;28;20080;-75
2021/01/15 08:18:43;;;;;;;0.38;0.38;;;13.60;67.40;;;;;;5028023;28;20025;-75
2021/01/15 08:21:09;;;;;;;0.40;0.40;;;13.70;67.40;;;;;;5013468;28;20084;-75
2021/01/15 08:23:35;;;;;;;0.50;0.50;;;13.70;67.40;;;;;;5014932;28;20034;-75
2021/01/15 08:26:00;;;;;;;1.38;0.30;;;13.70;67.30;;;;;;5013446;28;20441;-75
2021/01/15 08:28:26;;;;;;;0.73;0.60;;;13.70;67.30;;;;;;5013357;28;20540;-75
2021/01/15 08:30:56;;;;;;;0.47;0.30;;;13.70;67.30;;;;;;5030750;28;20781;-75
2021/01/15 08:33:22;;;;;;;0.45;0.45;;;13.70;67.30;;;;;;5029582;28;20378;-75
2021/01/15 08:35:55;;;;;;;0.50;0.28;;;13.70;67.30;;;;;;5011172;28;20029;-76
2021/01/15 08:38:37;;;;;;;1.10;0.50;;;13.70;67.30;;;;;;5013293;28;20389;-76
2021/01/15 08:41:23;;;;;;;0.70;0.60;;;13.70;67.20;;;;;;5010766;28;20056;-75
2021/01/15 08:43:51;;;;;;;0.65;0.52;;;13.70;67.20;;;;;;5033673;28;20029;-76
2021/01/15 08:46:18;;;;;;;0.50;0.50;;;13.70;67.20;;;;;;5011373;28;20112;-76
2021/01/15 08:48:44;;;;;;;0.88;0.50;;;13.70;67.10;;;;;;5007259;28;20416;-76
2021/01/15 08:51:11;;;;;;;0.60;0.40;;;13.80;67.10;;;;;;5033143;28;20025;-75
2021/01/15 08:54:13;;;;;;;0.40;0.40;;;13.70;67.10;;;;;;5012628;28;20037;-76
2021/01/15 08:56:37;;;;;;;0.73;0.45;;;13.70;67.00;;;;;;5028692;28;20037;-74
2021/01/15 08:59:11;;;;;;;0.45;0.30;;;13.80;67.00;;;;;;5028019;28;20053;-76
2021/01/15 09:01:43;;;;;;;1.33;0.63;;;13.80;67.00;;;;;;5009127;28;20057;-76
2021/01/15 09:04:13;;;;;;;0.68;0.57;;;13.80;67.00;;;;;;5023902;28;20525;-76
2021/01/15 09:06:41;;;;;;;0.60;0.50;;;13.80;66.90;;;;;;5023166;28;20121;-76
2021/01/15 09:09:09;;;;;;;0.85;0.60;;;13.80;66.90;;;;;;5027697;28;20025;-75
2021/01/15 09:11:36;;;;;;;;;;;13.80;66.90;;;;;;5013699;28;20092;-75
2021/01/15 09:14:04;;;;;;;0.93;0.40;;;13.80;66.90;;;;;;5011625;28;19913;-76
2021/01/15 09:16:31;;;;;;;0.30;0.30;;;13.80;66.90;;;;;;5024407;28;20045;-76
2021/01/15 09:19:04;;;;;;;0.68;0.40;;;13.80;66.90;;;;;;5028746;28;20536;-75
2021/01/15 09:21:30;;;;;;;0.40;0.40;;;13.80;66.90;;;;;;5030206;28;20044;-75
2021/01/15 09:23:56;;;;;;;1.27;0.43;;;13.80;66.90;;;;;;5003108;28;20459;-75
2021/01/15 09:26:21;;;;;;;0.47;0.45;;;13.70;66.90;;;;;;5031309;28;20041;-75
2021/01/15 09:28:47;;;;;;;0.60;0.55;;;13.80;66.90;;;;;;5010967;28;20044;-75
2021/01/15 09:31:13;;;;;;;0.30;0.30;;;13.80;66.90;;;;;;5027657;28;21747;-75
2021/01/15 09:36:35;;;;;;;0.40;0.40;;;13.80;66.90;;;;;;4994229;28;20497;-74
2021/01/15 09:39:03;;;;;;;0.60;0.50;;;13.80;66.90;;;;;;5013282;28;20071;-74
2021/01/15 09:41:29;;;;;;;0.73;0.52;;;13.80;66.80;;;;;;5031436;28;20116;-74
2021/01/15 09:43:55;;;;;;;1.00;0.40;;;13.80;66.80;;;;;;5023639;28;20100;-75
2021/01/15 09:46:26;;;;;;;0.85;0.35;;;13.80;66.80;;;;;;5021468;28;20045;-75
2021/01/15 09:48:54;;;;;;;0.50;0.30;;;13.80;66.80;;;;;;5013406;28;20448;-73
2021/01/15 09:51:24;;;;;;;0.40;0.40;;;13.80;66.80;;;;;;5023006;28;20083;-74
2021/01/15 09:53:52;;;;;;;0.73;0.60;;;13.80;66.80;;;;;;5025748;28;20045;-74
2021/01/15 09:56:44;;;;;;;0.50;0.45;;;13.80;66.80;;;;;;5026684;28;20414;-74
2021/01/15 09:59:11;;;;;;;0.30;0.30;;;13.80;66.90;;;;;;5004748;28;20473;-74
2021/01/15 10:01:45;;;;;;;0.30;0.30;;;13.80;66.80;;;;;;5031596;28;20032;-74
2021/01/15 10:04:15;;;;;;;0.30;0.30;;;13.80;66.80;;;;;;5001381;28;20056;-74
2021/01/15 10:06:43;;;;;;;1.08;0.55;;;13.80;66.80;;;;;;5029963;28;20041;-75
2021/01/15 10:09:09;;;;;;;0.60;0.52;;;13.80;66.80;;;;;;5023752;28;20037;-74
2021/01/15 10:11:38;;;;;;;0.43;0.43;;;13.80;66.90;;;;;;5009378;28;20080;-74
2021/01/15 10:14:12;;;;;;;0.60;0.30;;;13.80;66.80;;;;;;5009730;28;20032;-73
2021/01/15 10:16:42;;;;;;;1.33;0.55;;;13.80;66.80;;;;;;5023458;28;20041;-74
2021/01/15 10:19:08;;;;;;;0.60;0.60;;;13.80;66.70;;;;;;5023369;28;20032;-74
2021/01/15 10:21:38;;;;;;;0.68;0.68;;;13.80;66.60;;;;;;5010087;28;20603;-74
2021/01/15 10:24:05;;;;;;;0.50;0.40;;;13.80;66.60;;;;;;5006486;28;20027;-75
2021/01/15 10:26:35;;;;;;;0.63;0.40;;;13.80;66.60;;;;;;5027295;28;20376;-73
2021/01/15 10:29:03;;;;;;;0.73;0.50;;;13.80;66.70;;;;;;5019780;28;20475;-74
2021/01/15 10:31:29;;;;;;;0.40;0.40;;;13.80;66.70;;;;;;5020566;28;20454;-74
2021/01/15 10:34:02;;;;;;;0.30;0.30;;;13.80;66.70;;;;;;5010823;28;20030;-74
2021/01/15 10:36:33;;;;;;;0.63;0.60;;;13.80;66.70;;;;;;5011612;28;20036;-74
2021/01/15 10:39:04;;;;;;;0.60;0.40;;;13.80;66.70;;;;;;5022179;28;20083;-74
2021/01/15 10:41:35;;;;;;;0.70;0.55;;;13.80;66.70;;;;;;5010011;28;20030;-73
2021/01/15 10:44:03;;;;;;;0.38;0.38;;;13.80;66.70;;;;;;5008749;28;20026;-74
2021/01/15 10:46:41;;;;;;;0.40;0.32;;;13.80;66.70;;;;;;5023765;28;20045;-74
2021/01/15 10:49:15;;;;;;;0.70;0.50;;;13.80;66.70;;;;;;5010379;28;20120;-74
2021/01/15 10:51:45;;;;;;;0.40;0.40;;;13.80;66.70;;;;;;5009432;28;20041;-74
2021/01/15 10:54:11;;;;;;;0.73;0.43;;;13.80;66.60;;;;;;5005609;28;20837;-74
2021/01/15 10:56:39;;;;;;;0.43;0.30;;;13.80;66.60;;;;;;5010256;28;20037;-74
2021/01/15 10:59:08;;;;;;;0.33;0.33;;;13.80;66.60;;;;;;5011061;28;20029;-74
2021/01/15 11:01:45;;;;;;;1.33;0.60;;;13.80;66.60;;;;;;5030015;28;20280;-74
2021/01/15 11:04:13;;;;;;;0.57;0.50;;;13.80;66.60;;;;;;5008483;28;20534;-74
2021/01/15 11:06:40;;;;;;;0.50;0.47;;;13.80;66.50;;;;;;5026374;28;20117;-74
2021/01/15 11:09:07;;;;;;;0.60;0.52;;;13.80;66.60;;;;;;5008748;28;20281;-74
2021/01/15 11:11:33;;;;;;;0.57;0.50;;;13.80;66.60;;;;;;5008781;28;20076;-74
2021/01/15 11:13:59;;;;;;;3.13;0.38;;;13.80;66.50;;;;;;5024999;28;20025;-75
2021/01/15 11:16:25;;;;;;;1.60;0.50;;;13.80;66.60;;;;;;5002284;28;20764;-74
2021/01/15 11:18:51;;;;;;;0.50;0.43;;;13.80;66.50;;;;;;5011142;28;20100;-74
2021/01/15 11:21:24;;;;;;;0.40;0.40;;;13.80;66.50;;;;;;5012315;28;20030;-74
2021/01/15 11:23:49;;;;;;;0.55;0.50;;;13.80;66.50;;;;;;5003491;28;20045;-75
2021/01/15 11:26:35;;;;;;;0.90;0.57;;;13.80;66.50;;;;;;5004349;28;20065;-74
2021/01/15 11:29:07;;;;;;;0.60;0.60;;;13.80;66.50;;;;;;5005618;28;20033;-74
2021/01/15 11:31:36;;;;;;;0.40;0.40;;;13.80;66.50;;;;;;5005088;28;20037;-74
2021/01/15 11:34:07;;;;;;;0.70;0.50;;;13.80;66.60;;;;;;5004479;28;20088;-74
2021/01/15 11:36:42;;;;;;;1.10;1.00;;;13.80;66.60;;;;;;5027149;28;20037;-73
2021/01/15 11:39:11;;;;;;;2.42;1.40;;;13.90;66.10;;;;;;5009876;28;20033;-74
2021/01/15 11:41:37;;;;;;;1.25;1.08;;;14.00;66.40;;;;;;5009068;28;20088;-74
2021/01/15 11:44:07;;;;;;;2.78;1.20;;;14.00;66.60;;;;;;5024979;28;20101;-74
2021/01/15 11:46:33;;;;;;;2.67;1.73;;;14.10;67.00;;;;;;5026513;28;20143;-75
2021/01/15 11:49:00;;;;;;;6.57;1.20;;;14.10;68.80;;;;;;4992127;28;21745;-74
2021/01/15 11:51:27;;;;;;;3.00;1.17;;;14.10;69.50;;;;;;4994260;28;20042;-74
2021/01/15 11:53:53;;;;;;;1.42;1.02;;;14.20;71.30;;;;;;5008020;28;20513;-74
2021/01/15 11:56:18;;;;;;;11.88;1.88;;;14.30;72.70;;;;;;5008199;28;20034;-74
2021/01/15 11:58:44;;;;;;;8.23;1.65;;;14.30;73.90;;;;;;5006414;28;20361;-75
2021/01/15 12:01:10;;;;;;;7.75;1.88;;;14.40;75.20;;;;;;5010714;28;20048;-74
2021/01/15 12:03:35;;;;;;;14.88;2.08;;;14.50;76.40;;;;;;4981580;28;20030;-78
2021/01/15 12:06:02;;;;;;;15.23;3.00;;;14.60;77.40;;;;;;5006953;28;20038;-74
2021/01/15 12:08:27;;;;;;;11.30;2.35;;;14.60;78.70;;;;;;5003466;28;20062;-74
2021/01/15 12:10:55;;;;;;;6.80;2.15;;;14.60;79.40;;;;;;5013178;28;20104;-73
2021/01/15 12:13:25;;;;;;;11.20;2.75;;;14.70;81.00;;;;;;5003418;28;20026;-74
2021/01/15 12:15:52;;;;;;;11.45;2.03;;;14.80;82.60;;;;;;4992777;28;20124;-75
2021/01/15 12:18:17;;;;;;;6.57;2.33;;;14.70;82.60;;;;;;4995491;28;20036;-76
2021/01/15 12:20:43;;;;;;;17.83;2.80;;;14.70;83.60;;;;;;5017616;28;20022;-75
2021/01/15 12:23:09;;;;;;;19.42;3.42;;;14.70;85.20;;;;;;4993977;28;20493;-74
2021/01/15 12:25:39;;;;;;;11.10;2.67;;;14.70;86.20;;;;;;4988308;28;20554;-74
2021/01/15 12:28:14;;;;;;;16.63;4.88;;;14.70;85.20;;;;;;4997142;28;20106;-75
2021/01/15 12:30:42;;;;;;;13.80;5.68;;;14.20;75.40;;;;;;5009064;28;20026;-74
2021/01/15 12:33:11;;;;;;;9.50;5.10;;;13.70;63.40;;;;;;4995604;28;20022;-75
2021/01/15 12:35:38;;;;;;;9.50;5.63;;;13.40;67.60;;;;;;4998530;28;20076;-75
2021/01/15 12:38:07;;;;;;;8.80;4.82;;;13.10;63.00;;;;;;5008934;28;20026;-78
2021/01/15 12:40:34;;;;;;;8.23;4.53;;;12.80;62.70;;;;;;5012136;28;20022;-77
2021/01/15 12:43:03;;;;;;;7.40;4.55;;;12.70;61.30;;;;;;4985461;28;20026;-77
2021/01/15 12:45:29;;;;;;;9.88;4.80;;;12.60;64.20;;;;;;4992829;28;20030;-78
2021/01/15 12:47:59;;;;;;;8.40;4.80;;;12.60;62.40;;;;;;4987294;28;20108;-77
2021/01/15 12:50:25;;;;;;;9.15;5.55;;;12.40;59.80;;;;;;5010522;28;20040;-77
2021/01/15 12:52:52;;;;;;;11.13;5.50;;;12.30;63.70;;;;;;5007762;28;20105;-77
2021/01/15 12:55:25;;;;;;;10.27;4.68;;;12.30;61.60;;;;;;4989846;28;20057;-78
2021/01/15 12:58:01;;;;;;;6.97;3.95;;;12.30;61.80;;;;;;4995924;28;20034;-79
2021/01/15 13:00:32;;;;;;;7.28;5.10;;;12.40;62.30;;;;;;5003689;28;20105;-77